createdAt,value
2022-11-19T00:00:04.619Z,9.88
2022-11-19T00:01:07.272Z,9.88
2022-11-19T00:02:10.070Z,9.88
2022-11-19T00:03:12.822Z,9.89
2022-11-19T00:04:15.500Z,9.89
2022-11-19T00:05:21.227Z,9.89
2022-11-19T00:06:23.768Z,9.88
2022-11-19T00:07:26.517Z,9.86
2022-11-19T00:08:29.200Z,9.86
2022-11-19T00:09:31.815Z,9.83
2022-11-19T00:10:34.497Z,9.8
2022-11-19T00:11:38.157Z,9.81
2022-11-19T00:12:40.880Z,9.78
2022-11-19T00:13:43.599Z,9.79
2022-11-19T00:14:46.294Z,9.81
2022-11-19T00:15:48.931Z,9.84
2022-11-19T00:16:51.575Z,9.82
2022-11-19T00:17:54.243Z,9.8
2022-11-19T00:18:56.887Z,9.81
2022-11-19T00:19:59.524Z,9.81
2022-11-19T00:21:02.143Z,9.82
2022-11-19T00:22:04.827Z,9.86
2022-11-19T00:23:07.479Z,9.87
2022-11-19T00:24:10.135Z,9.88
2022-11-19T00:25:12.796Z,9.9
2022-11-19T00:26:15.405Z,9.91
2022-11-19T00:27:18.072Z,9.92
2022-11-19T00:28:20.782Z,9.93
2022-11-19T00:29:24.556Z,9.92
2022-11-19T00:30:52.426Z,9.93
2022-11-19T00:31:49.008Z,9.93
2022-11-19T00:32:51.686Z,9.93
2022-11-19T00:33:54.498Z,9.95
2022-11-19T00:34:57.285Z,9.97
2022-11-19T00:35:59.900Z,9.97
2022-11-19T00:37:02.527Z,9.98
2022-11-19T00:38:05.413Z,9.98
2022-11-19T00:39:08.030Z,9.98
2022-11-19T00:40:10.647Z,9.98
2022-11-19T00:41:13.288Z,9.98
2022-11-19T00:42:15.906Z,9.99
2022-11-19T00:43:18.579Z,10
2022-11-19T00:44:21.259Z,10
2022-11-19T00:45:23.930Z,10
2022-11-19T00:46:26.875Z,9.99
2022-11-19T00:47:29.519Z,10
2022-11-19T00:48:32.204Z,10.02
2022-11-19T00:49:34.816Z,10.04
2022-11-19T00:50:37.458Z,10.03
2022-11-19T00:51:40.121Z,10.04
2022-11-19T00:52:44.257Z,10.04
2022-11-19T00:53:46.806Z,10.05
2022-11-19T00:54:49.473Z,10.06
2022-11-19T00:55:52.094Z,10.05
2022-11-19T00:56:54.726Z,10.04
2022-11-19T00:57:57.395Z,10.02
2022-11-19T00:59:00.666Z,10
2022-11-19T01:00:03.356Z,10.03
2022-11-19T01:01:06.316Z,10.04
2022-11-19T01:02:09.237Z,10.06
2022-11-19T01:03:11.828Z,10.05
2022-11-19T01:04:14.472Z,10.06
2022-11-19T01:05:17.144Z,10.06
2022-11-19T01:06:19.999Z,10.06
2022-11-19T01:07:22.727Z,10.06
2022-11-19T01:08:25.487Z,10.06
2022-11-19T01:09:28.146Z,10.07
2022-11-19T01:10:30.795Z,10.07
2022-11-19T01:11:33.441Z,10.05
2022-11-19T01:12:36.082Z,10.04
2022-11-19T01:13:38.739Z,10.04
2022-11-19T01:14:41.622Z,10.05
2022-11-19T01:15:44.379Z,10.07
2022-11-19T01:16:47.091Z,10.07
2022-11-19T01:17:49.768Z,10.08
2022-11-19T01:18:52.410Z,10.07
2022-11-19T01:19:55.055Z,10.07
2022-11-19T01:20:57.733Z,10.06
2022-11-19T01:22:00.387Z,10.07
2022-11-19T01:23:03.061Z,10.08
2022-11-19T01:24:05.694Z,10.08
2022-11-19T01:25:08.370Z,10.09
2022-11-19T01:26:11.008Z,10.08
2022-11-19T01:27:13.643Z,10.1
2022-11-19T01:28:16.361Z,10.09
2022-11-19T01:29:20.099Z,10.09
2022-11-19T01:30:23.132Z,10.07
2022-11-19T01:31:25.814Z,10.07
2022-11-19T01:32:28.491Z,10.08
2022-11-19T01:33:31.161Z,10.09
2022-11-19T01:34:33.819Z,10.08
2022-11-19T01:35:36.442Z,10.09
2022-11-19T01:36:39.136Z,10.09
2022-11-19T01:37:41.801Z,10.08
2022-11-19T01:38:44.481Z,10.07
2022-11-19T01:39:47.146Z,10.07
2022-11-19T01:40:49.802Z,10.07
2022-11-19T01:41:52.428Z,10.08
2022-11-19T01:42:55.066Z,10.08
2022-11-19T01:43:58.297Z,10.06
2022-11-19T01:45:00.903Z,10.07
2022-11-19T01:46:03.532Z,10.07
2022-11-19T01:47:06.251Z,10.09
2022-11-19T01:48:08.937Z,10.08
2022-11-19T01:49:11.539Z,10.07
2022-11-19T01:50:14.199Z,10.07
2022-11-19T01:51:16.908Z,10.08
2022-11-19T01:52:19.544Z,10.08
2022-11-19T01:53:22.176Z,10.09
2022-11-19T01:54:24.827Z,10.08
2022-11-19T01:55:27.496Z,10.07
2022-11-19T01:56:30.171Z,10.06
2022-11-19T01:57:32.837Z,10.05
2022-11-19T01:58:35.464Z,10.03
2022-11-19T01:59:38.086Z,10.03
2022-11-19T02:00:40.885Z,10.02
2022-11-19T02:01:43.655Z,9.99
2022-11-19T02:02:46.467Z,9.97
2022-11-19T02:03:49.120Z,9.97
2022-11-19T02:04:51.747Z,9.97
2022-11-19T02:05:54.410Z,9.98
2022-11-19T02:06:57.304Z,9.99
2022-11-19T02:07:59.942Z,10
2022-11-19T02:09:02.553Z,9.99
2022-11-19T02:10:05.191Z,9.99
2022-11-19T02:11:07.854Z,9.98
2022-11-19T02:12:10.493Z,9.99
2022-11-19T02:13:13.221Z,9.99
2022-11-19T02:14:15.882Z,10
2022-11-19T02:15:18.519Z,10.02
2022-11-19T02:16:21.129Z,10.01
2022-11-19T02:17:23.770Z,10.01
2022-11-19T02:18:29.956Z,9.98
2022-11-19T02:19:32.615Z,9.98
2022-11-19T02:20:35.254Z,9.98
2022-11-19T02:21:37.838Z,9.98
2022-11-19T02:22:40.487Z,9.98
2022-11-19T02:23:46.841Z,9.99
2022-11-19T02:24:49.449Z,10.01
2022-11-19T02:25:52.094Z,10.01
2022-11-19T02:26:54.723Z,10.04
2022-11-19T02:27:57.375Z,10.02
2022-11-19T02:29:00.011Z,10.01
2022-11-19T02:30:02.705Z,10.02
2022-11-19T02:31:05.348Z,10.03
2022-11-19T02:32:08.008Z,10.03
2022-11-19T02:33:10.671Z,10.04
2022-11-19T02:34:13.381Z,10.04
2022-11-19T02:35:16.071Z,10.03
2022-11-19T02:36:18.941Z,10.03
2022-11-19T02:37:21.603Z,10.04
2022-11-19T02:38:24.224Z,10.04
2022-11-19T02:39:26.896Z,10.05
2022-11-19T02:40:29.508Z,10.06
2022-11-19T02:41:32.201Z,10.05
2022-11-19T02:42:34.822Z,10.05
2022-11-19T02:43:37.439Z,10.03
2022-11-19T02:44:40.086Z,10.02
2022-11-19T02:45:42.818Z,10.03
2022-11-19T02:46:45.456Z,10.03
2022-11-19T02:47:48.102Z,10.04
2022-11-19T02:48:50.703Z,10.04
2022-11-19T02:49:53.426Z,10.05
2022-11-19T02:50:56.151Z,10.05
2022-11-19T02:51:58.792Z,10.04
2022-11-19T02:53:01.422Z,10.05
2022-11-19T02:54:04.038Z,10.05
2022-11-19T02:55:06.720Z,10.06
2022-11-19T02:56:09.379Z,10.03
2022-11-19T02:57:12.029Z,10.02
2022-11-19T02:58:14.665Z,10.03
2022-11-19T02:59:18.451Z,10.01
2022-11-19T03:00:21.625Z,10.02
2022-11-19T03:01:24.326Z,10
2022-11-19T03:02:27.114Z,10.01
2022-11-19T03:03:30.363Z,10.01
2022-11-19T03:04:33.171Z,10.02
2022-11-19T03:05:35.829Z,10
2022-11-19T03:06:38.520Z,9.99
2022-11-19T03:07:41.302Z,10
2022-11-19T03:08:44.017Z,10
2022-11-19T03:09:47.218Z,10
2022-11-19T03:10:50.418Z,10
2022-11-19T03:11:53.011Z,9.99
2022-11-19T03:12:55.693Z,9.98
2022-11-19T03:13:58.359Z,9.98
2022-11-19T03:15:00.975Z,9.96
2022-11-19T03:16:03.594Z,9.96
2022-11-19T03:17:06.239Z,9.95
2022-11-19T03:18:08.891Z,9.96
2022-11-19T03:19:11.780Z,9.95
2022-11-19T03:20:14.438Z,9.94
2022-11-19T03:21:17.150Z,9.93
2022-11-19T03:22:19.859Z,9.89
2022-11-19T03:23:22.517Z,9.86
2022-11-19T03:24:25.156Z,9.8
2022-11-19T03:25:28.906Z,9.78
2022-11-19T03:26:32.084Z,9.77
2022-11-19T03:27:34.683Z,9.77
2022-11-19T03:28:37.333Z,9.77
2022-11-19T03:29:40.003Z,9.77
2022-11-19T03:30:42.697Z,9.77
2022-11-19T03:31:45.388Z,9.76
2022-11-19T03:32:48.116Z,9.78
2022-11-19T03:33:50.789Z,9.78
2022-11-19T03:34:53.435Z,9.77
2022-11-19T03:35:56.047Z,9.8
2022-11-19T03:36:59.321Z,9.81
2022-11-19T03:38:01.956Z,9.8
2022-11-19T03:39:04.608Z,9.77
2022-11-19T03:40:07.236Z,9.76
2022-11-19T03:41:09.887Z,9.77
2022-11-19T03:42:12.524Z,9.75
2022-11-19T03:43:15.199Z,9.72
2022-11-19T03:44:17.921Z,9.69
2022-11-19T03:45:20.537Z,9.71
2022-11-19T03:46:23.788Z,9.71
2022-11-19T03:47:26.442Z,9.72
2022-11-19T03:48:29.043Z,9.72
2022-11-19T03:49:31.781Z,9.74
2022-11-19T03:50:34.466Z,9.75
2022-11-19T03:51:37.111Z,9.77
2022-11-19T03:52:39.824Z,9.77
2022-11-19T03:53:42.531Z,9.78
2022-11-19T03:54:45.143Z,9.79
2022-11-19T03:55:47.790Z,9.78
2022-11-19T03:56:50.441Z,9.77
2022-11-19T03:57:53.105Z,9.76
2022-11-19T03:58:55.734Z,9.77
2022-11-19T03:59:58.379Z,9.77
2022-11-19T04:01:01.205Z,9.77
2022-11-19T04:02:04.104Z,9.78
2022-11-19T04:03:06.838Z,9.8
2022-11-19T04:04:09.485Z,9.8
2022-11-19T04:05:12.089Z,9.8
2022-11-19T04:06:14.932Z,9.82
2022-11-19T04:07:17.763Z,9.81
2022-11-19T04:08:20.570Z,9.82
2022-11-19T04:09:23.301Z,9.82
2022-11-19T04:10:25.933Z,9.82
2022-11-19T04:11:28.623Z,9.84
2022-11-19T04:12:31.293Z,9.86
2022-11-19T04:13:33.914Z,9.87
2022-11-19T04:14:36.576Z,9.88
2022-11-19T04:15:39.253Z,9.87
2022-11-19T04:16:41.946Z,9.88
2022-11-19T04:17:44.622Z,9.86
2022-11-19T04:18:47.244Z,9.87
2022-11-19T04:19:49.893Z,9.87
2022-11-19T04:20:52.576Z,9.87
2022-11-19T04:21:55.251Z,9.85
2022-11-19T04:22:57.864Z,9.82
2022-11-19T04:24:00.571Z,9.82
2022-11-19T04:25:03.273Z,9.82
2022-11-19T04:26:05.936Z,9.83
2022-11-19T04:27:08.580Z,9.83
2022-11-19T04:28:11.211Z,9.83
2022-11-19T04:29:13.825Z,9.81
2022-11-19T04:30:16.518Z,9.81
2022-11-19T04:31:19.157Z,9.81
2022-11-19T04:32:21.820Z,9.83
2022-11-19T04:33:24.510Z,9.84
2022-11-19T04:34:27.179Z,9.83
2022-11-19T04:35:30.029Z,9.84
2022-11-19T04:36:32.650Z,9.83
2022-11-19T04:37:35.343Z,9.84
2022-11-19T04:38:37.988Z,9.85
2022-11-19T04:39:40.692Z,9.83
2022-11-19T04:40:43.447Z,9.8
2022-11-19T04:41:46.081Z,9.79
2022-11-19T04:42:48.721Z,9.8
2022-11-19T04:43:51.379Z,9.79
2022-11-19T04:44:54.052Z,9.78
2022-11-19T04:45:56.697Z,9.76
2022-11-19T04:46:59.317Z,9.76
2022-11-19T04:48:01.996Z,9.77
2022-11-19T04:49:04.624Z,9.77
2022-11-19T04:50:07.311Z,9.76
2022-11-19T04:51:10.003Z,9.77
2022-11-19T04:52:12.591Z,9.77
2022-11-19T04:53:15.244Z,9.78
2022-11-19T04:54:17.929Z,9.77
2022-11-19T04:55:30.598Z,9.78
2022-11-19T04:56:32.855Z,9.79
2022-11-19T04:57:35.486Z,9.81
2022-11-19T04:58:38.098Z,9.81
2022-11-19T04:59:40.757Z,9.82
2022-11-19T05:00:43.422Z,9.81
2022-11-19T05:01:46.251Z,9.82
2022-11-19T05:02:48.928Z,9.81
2022-11-19T05:03:51.642Z,9.8
2022-11-19T05:04:54.291Z,9.81
2022-11-19T05:05:56.901Z,9.81
2022-11-19T05:06:59.669Z,9.81
2022-11-19T05:08:02.409Z,9.81
2022-11-19T05:09:05.068Z,9.82
2022-11-19T05:10:07.713Z,9.8
2022-11-19T05:11:10.378Z,9.8
2022-11-19T05:12:13.065Z,9.8
2022-11-19T05:13:15.744Z,9.78
2022-11-19T05:14:18.374Z,9.78
2022-11-19T05:15:20.996Z,9.77
2022-11-19T05:16:23.666Z,9.78
2022-11-19T05:17:26.296Z,9.79
2022-11-19T05:18:30.060Z,9.78
2022-11-19T05:19:32.649Z,9.76
2022-11-19T05:20:35.296Z,9.74
2022-11-19T05:21:37.913Z,9.74
2022-11-19T05:22:40.592Z,9.74
2022-11-19T05:23:43.244Z,9.75
2022-11-19T05:24:45.860Z,9.73
2022-11-19T05:25:48.514Z,9.75
2022-11-19T05:26:51.196Z,9.73
2022-11-19T05:27:54.481Z,9.73
2022-11-19T05:28:57.100Z,9.74
2022-11-19T05:29:59.750Z,9.72
2022-11-19T05:31:02.377Z,9.74
2022-11-19T05:32:05.010Z,9.75
2022-11-19T05:33:07.661Z,9.73
2022-11-19T05:34:10.285Z,9.74
2022-11-19T05:35:12.966Z,9.75
2022-11-19T05:36:15.608Z,9.75
2022-11-19T05:37:18.237Z,9.74
2022-11-19T05:38:24.406Z,9.76
2022-11-19T05:39:28.037Z,9.75
2022-11-19T05:40:31.196Z,9.73
2022-11-19T05:41:35.406Z,9.74
2022-11-19T05:42:37.863Z,9.74
2022-11-19T05:43:40.549Z,9.75
2022-11-19T05:44:43.201Z,9.74
2022-11-19T05:45:45.860Z,9.76
2022-11-19T05:46:48.506Z,9.77
2022-11-19T05:47:51.149Z,9.78
2022-11-19T05:48:53.767Z,9.79
2022-11-19T05:49:56.436Z,9.78
2022-11-19T05:50:59.103Z,9.78
2022-11-19T05:52:01.747Z,9.78
2022-11-19T05:53:04.417Z,9.78
2022-11-19T05:54:07.516Z,9.79
2022-11-19T05:55:10.337Z,9.79
2022-11-19T05:56:12.993Z,9.8
2022-11-19T05:57:27.185Z,9.79
2022-11-19T05:58:30.505Z,9.78
2022-11-19T05:59:33.143Z,9.78
2022-11-19T06:00:35.741Z,9.77
2022-11-19T06:01:39.344Z,9.78
2022-11-19T06:02:42.234Z,9.76
2022-11-19T06:03:44.920Z,9.75
2022-11-19T06:04:47.529Z,9.73
2022-11-19T06:05:50.178Z,9.73
2022-11-19T06:06:52.811Z,9.75
2022-11-19T06:07:55.638Z,9.73
2022-11-19T06:08:58.290Z,9.71
2022-11-19T06:10:00.941Z,9.71
2022-11-19T06:11:03.523Z,9.74
2022-11-19T06:12:06.189Z,9.73
2022-11-19T06:13:09.061Z,9.73
2022-11-19T06:14:11.708Z,9.72
2022-11-19T06:15:14.347Z,9.75
2022-11-19T06:16:17.021Z,9.76
2022-11-19T06:17:19.672Z,9.76
2022-11-19T06:18:22.331Z,9.77
2022-11-19T06:19:25.048Z,9.77
2022-11-19T06:20:27.749Z,9.78
2022-11-19T06:21:30.492Z,9.79
2022-11-19T06:22:33.167Z,9.78
2022-11-19T06:23:35.856Z,9.78
2022-11-19T06:24:38.528Z,9.78
2022-11-19T06:25:41.177Z,9.76
2022-11-19T06:26:43.786Z,9.75
2022-11-19T06:27:46.442Z,9.76
2022-11-19T06:28:49.098Z,9.75
2022-11-19T06:29:56.686Z,9.75
2022-11-19T06:30:59.099Z,9.75
2022-11-19T06:32:01.750Z,9.76
2022-11-19T06:33:04.377Z,9.74
2022-11-19T06:34:07.009Z,9.74
2022-11-19T06:35:10.225Z,9.75
2022-11-19T06:36:12.854Z,9.74
2022-11-19T06:37:15.558Z,9.74
2022-11-19T06:38:18.804Z,9.73
2022-11-19T06:39:22.481Z,9.74
2022-11-19T06:40:25.536Z,9.72
2022-11-19T06:41:28.187Z,9.71
2022-11-19T06:42:30.840Z,9.7
2022-11-19T06:43:33.502Z,9.69
2022-11-19T06:44:36.118Z,9.68
2022-11-19T06:45:38.817Z,9.67
2022-11-19T06:46:41.504Z,9.66
2022-11-19T06:47:45.208Z,9.66
2022-11-19T06:48:47.826Z,9.67
2022-11-19T06:49:50.474Z,9.66
2022-11-19T06:50:53.101Z,9.68
2022-11-19T06:51:55.748Z,9.68
2022-11-19T06:52:58.408Z,9.69
2022-11-19T06:54:01.030Z,9.69
2022-11-19T06:55:03.650Z,9.67
2022-11-19T06:56:06.295Z,9.67
2022-11-19T06:57:08.976Z,9.65
2022-11-19T06:58:15.124Z,9.66
2022-11-19T06:59:18.660Z,9.67
2022-11-19T07:00:21.777Z,9.66
2022-11-19T07:01:24.681Z,9.67
2022-11-19T07:02:27.431Z,9.69
2022-11-19T07:03:30.128Z,9.7
2022-11-19T07:04:32.745Z,9.7
2022-11-19T07:05:35.392Z,9.7
2022-11-19T07:06:38.070Z,9.72
2022-11-19T07:07:40.790Z,9.72
2022-11-19T07:08:43.588Z,9.72
2022-11-19T07:09:46.217Z,9.73
2022-11-19T07:10:48.835Z,9.74
2022-11-19T07:11:51.468Z,9.75
2022-11-19T07:12:54.153Z,9.74
2022-11-19T07:13:56.790Z,9.74
2022-11-19T07:15:05.042Z,9.74
2022-11-19T07:16:07.317Z,9.71
2022-11-19T07:17:09.975Z,9.71
2022-11-19T07:18:12.637Z,9.72
2022-11-19T07:19:15.277Z,9.72
2022-11-19T07:20:17.966Z,9.72
2022-11-19T07:21:20.541Z,9.73
2022-11-19T07:22:23.204Z,9.74
2022-11-19T07:23:25.850Z,9.75
2022-11-19T07:24:28.510Z,9.74
2022-11-19T07:25:31.195Z,9.75
2022-11-19T07:26:33.825Z,9.74
2022-11-19T07:27:36.491Z,9.74
2022-11-19T07:28:40.672Z,9.75
2022-11-19T07:29:43.230Z,9.75
2022-11-19T07:30:45.892Z,9.74
2022-11-19T07:31:48.543Z,9.74
2022-11-19T07:32:51.214Z,9.73
2022-11-19T07:33:53.884Z,9.73
2022-11-19T07:34:56.496Z,9.72
2022-11-19T07:35:59.155Z,9.72
2022-11-19T07:37:01.850Z,9.73
2022-11-19T07:38:04.527Z,9.73
2022-11-19T07:39:07.159Z,9.72
2022-11-19T07:40:09.819Z,9.72
2022-11-19T07:41:12.450Z,9.72
2022-11-19T07:42:15.116Z,9.73
2022-11-19T07:43:17.737Z,9.73
2022-11-19T07:44:20.391Z,9.74
2022-11-19T07:45:23.049Z,9.74
2022-11-19T07:46:25.698Z,9.73
2022-11-19T07:47:28.367Z,9.73
2022-11-19T07:48:31.109Z,9.74
2022-11-19T07:49:33.820Z,9.74
2022-11-19T07:50:36.479Z,9.73
2022-11-19T07:51:39.105Z,9.73
2022-11-19T07:52:41.786Z,9.73
2022-11-19T07:53:44.408Z,9.76
2022-11-19T07:54:47.083Z,9.77
2022-11-19T07:55:49.676Z,9.8
2022-11-19T07:56:52.333Z,9.82
2022-11-19T07:57:54.976Z,9.83
2022-11-19T07:58:58.149Z,9.84
2022-11-19T08:00:00.803Z,9.84
2022-11-19T08:01:03.461Z,9.84
2022-11-19T08:02:06.200Z,9.87
2022-11-19T08:03:08.896Z,9.88
2022-11-19T08:04:11.736Z,9.89
2022-11-19T08:05:14.455Z,9.91
2022-11-19T08:06:17.105Z,9.92
2022-11-19T08:07:19.916Z,9.92
2022-11-19T08:08:22.600Z,9.88
2022-11-19T08:09:25.315Z,9.87
2022-11-19T08:10:32.200Z,9.87
2022-11-19T08:11:34.570Z,9.89
2022-11-19T08:12:37.237Z,9.92
2022-11-19T08:13:39.887Z,9.94
2022-11-19T08:14:42.571Z,9.98
2022-11-19T08:15:45.368Z,10
2022-11-19T08:16:47.966Z,10.02
2022-11-19T08:17:50.650Z,10.02
2022-11-19T08:18:53.310Z,10.04
2022-11-19T08:19:56.027Z,10.04
2022-11-19T08:20:58.727Z,10.04
2022-11-19T08:22:01.400Z,10.01
2022-11-19T08:23:04.076Z,9.99
2022-11-19T08:24:06.955Z,10.01
2022-11-19T08:25:09.616Z,10
2022-11-19T08:26:12.259Z,9.99
2022-11-19T08:27:14.943Z,9.98
2022-11-19T08:28:17.809Z,9.99
2022-11-19T08:29:20.426Z,9.99
2022-11-19T08:30:23.064Z,10.01
2022-11-19T08:31:25.743Z,10.03
2022-11-19T08:32:28.432Z,10.06
2022-11-19T08:33:31.092Z,10.09
2022-11-19T08:34:33.768Z,10.06
2022-11-19T08:35:36.455Z,10.08
2022-11-19T08:36:39.161Z,10.07
2022-11-19T08:37:41.873Z,10.09
2022-11-19T08:38:44.545Z,10.13
2022-11-19T08:39:47.251Z,10.15
2022-11-19T08:40:50.450Z,10.2
2022-11-19T08:41:53.099Z,10.23
2022-11-19T08:42:56.036Z,10.24
2022-11-19T08:43:58.664Z,10.24
2022-11-19T08:45:01.292Z,10.25
2022-11-19T08:46:03.925Z,10.26
2022-11-19T08:47:06.616Z,10.27
2022-11-19T08:48:09.466Z,10.29
2022-11-19T08:49:12.322Z,10.3
2022-11-19T08:50:14.951Z,10.31
2022-11-19T08:51:17.867Z,10.31
2022-11-19T08:52:20.881Z,10.31
2022-11-19T08:53:23.456Z,10.34
2022-11-19T08:54:26.149Z,10.35
2022-11-19T08:55:28.857Z,10.36
2022-11-19T08:56:31.463Z,10.34
2022-11-19T08:57:34.203Z,10.34
2022-11-19T08:58:36.795Z,10.35
2022-11-19T08:59:39.586Z,10.37
2022-11-19T09:00:42.559Z,10.37
2022-11-19T09:01:45.274Z,10.41
2022-11-19T09:02:47.956Z,10.45
2022-11-19T09:03:50.597Z,10.42
2022-11-19T09:04:53.270Z,10.44
2022-11-19T09:05:55.950Z,10.46
2022-11-19T09:06:59.389Z,10.46
2022-11-19T09:08:02.141Z,10.54
2022-11-19T09:09:04.777Z,10.75
2022-11-19T09:10:07.385Z,10.89
2022-11-19T09:11:10.078Z,10.96
2022-11-19T09:12:12.745Z,11
2022-11-19T09:13:15.424Z,11.01
2022-11-19T09:14:19.193Z,11.02
2022-11-19T09:15:22.930Z,11.04
2022-11-19T09:16:25.606Z,11.1
2022-11-19T09:17:28.848Z,11.17
2022-11-19T09:18:35.022Z,11.33
2022-11-19T09:19:37.484Z,11.59
2022-11-19T09:20:40.115Z,11.76
2022-11-19T09:21:42.774Z,11.87
2022-11-19T09:22:45.497Z,11.9
2022-11-19T09:23:48.463Z,11.92
2022-11-19T09:24:51.340Z,11.92
2022-11-19T09:25:54.001Z,11.84
2022-11-19T09:27:02.717Z,11.81
2022-11-19T09:28:05.082Z,11.82
2022-11-19T09:29:07.718Z,11.8
2022-11-19T09:30:10.894Z,11.73
2022-11-19T09:31:13.529Z,11.71
2022-11-19T09:32:25.597Z,11.71
2022-11-19T09:33:28.036Z,11.71
2022-11-19T09:34:30.661Z,11.69
2022-11-19T09:35:33.344Z,11.62
2022-11-19T09:36:36.571Z,11.56
2022-11-19T09:37:39.474Z,11.55
2022-11-19T09:38:42.191Z,11.54
2022-11-19T09:39:44.919Z,11.52
2022-11-19T09:40:47.583Z,11.43
2022-11-19T09:41:51.218Z,11.35
2022-11-19T09:42:54.071Z,11.21
2022-11-19T09:44:06.750Z,11.19
2022-11-19T09:45:09.089Z,11.19
2022-11-19T09:46:11.939Z,11.2
2022-11-19T09:47:14.616Z,11.22
2022-11-19T09:48:17.214Z,11.22
2022-11-19T09:49:19.846Z,11.24
2022-11-19T09:50:22.506Z,11.26
2022-11-19T09:51:25.134Z,11.26
2022-11-19T09:52:27.742Z,11.21
2022-11-19T09:53:30.414Z,11.24
2022-11-19T09:54:33.105Z,11.25
2022-11-19T09:55:35.863Z,11.23
2022-11-19T09:56:38.528Z,11.25
2022-11-19T09:57:41.285Z,11.3
2022-11-19T09:58:45.386Z,11.37
2022-11-19T09:59:48.227Z,11.41
2022-11-19T10:00:50.832Z,11.45
2022-11-19T10:01:53.469Z,11.47
2022-11-19T10:02:56.281Z,11.49
2022-11-19T10:03:59.025Z,11.48
2022-11-19T10:05:01.691Z,11.5
2022-11-19T10:06:04.327Z,11.53
2022-11-19T10:07:07.243Z,11.5
2022-11-19T10:08:10.007Z,11.49
2022-11-19T10:09:12.633Z,11.45
2022-11-19T10:10:15.552Z,11.43
2022-11-19T10:11:28.457Z,11.45
2022-11-19T10:12:30.634Z,11.46
2022-11-19T10:13:33.280Z,11.48
2022-11-19T10:14:35.882Z,11.47
2022-11-19T10:15:38.566Z,11.48
2022-11-19T10:16:41.216Z,11.48
2022-11-19T10:17:43.843Z,11.45
2022-11-19T10:18:46.496Z,11.43
2022-11-19T10:19:49.131Z,11.44
2022-11-19T10:20:51.813Z,11.46
2022-11-19T10:21:55.059Z,11.47
2022-11-19T10:22:58.357Z,11.48
2022-11-19T10:24:00.939Z,11.47
2022-11-19T10:25:03.615Z,11.42
2022-11-19T10:26:06.333Z,11.4
2022-11-19T10:27:09.164Z,11.4
2022-11-19T10:28:11.772Z,11.38
2022-11-19T10:29:14.425Z,11.36
2022-11-19T10:30:17.090Z,11.39
2022-11-19T10:31:19.764Z,11.4
2022-11-19T10:32:22.438Z,11.38
2022-11-19T10:33:25.097Z,11.4
2022-11-19T10:34:31.290Z,11.4
2022-11-19T10:35:37.234Z,11.4
2022-11-19T10:36:39.625Z,11.4
2022-11-19T10:37:45.989Z,11.37
2022-11-19T10:38:51.587Z,11.31
2022-11-19T10:39:57.480Z,11.32
2022-11-19T10:40:59.871Z,11.33
2022-11-19T10:42:02.566Z,11.28
2022-11-19T10:43:05.396Z,11.28
2022-11-19T10:44:08.283Z,11.27
2022-11-19T10:45:10.901Z,11.3
2022-11-19T10:46:13.529Z,11.31
2022-11-19T10:47:16.208Z,11.35
2022-11-19T10:48:18.827Z,11.38
2022-11-19T10:49:22.086Z,11.41
2022-11-19T10:50:24.768Z,11.44
2022-11-19T10:51:27.475Z,11.44
2022-11-19T10:52:30.132Z,11.45
2022-11-19T10:53:32.772Z,11.44
2022-11-19T10:54:35.410Z,11.4
2022-11-19T10:55:41.566Z,11.38
2022-11-19T10:56:44.006Z,11.4
2022-11-19T10:57:46.684Z,11.4
2022-11-19T10:58:49.602Z,11.41
2022-11-19T10:59:52.213Z,11.42
2022-11-19T11:00:55.005Z,11.44
2022-11-19T11:01:57.720Z,11.42
2022-11-19T11:03:00.361Z,11.42
2022-11-19T11:04:03.049Z,11.46
2022-11-19T11:05:05.679Z,11.48
2022-11-19T11:06:08.355Z,11.47
2022-11-19T11:07:11.187Z,11.48
2022-11-19T11:08:13.976Z,11.49
2022-11-19T11:09:16.668Z,11.46
2022-11-19T11:10:19.472Z,11.45
2022-11-19T11:11:23.186Z,11.45
2022-11-19T11:12:26.613Z,11.43
2022-11-19T11:13:29.325Z,11.4
2022-11-19T11:14:32.045Z,11.4
2022-11-19T11:15:34.690Z,11.37
2022-11-19T11:16:38.201Z,11.38
2022-11-19T11:17:40.996Z,11.38
2022-11-19T11:18:43.646Z,11.41
2022-11-19T11:19:46.260Z,11.4
2022-11-19T11:20:48.915Z,11.39
2022-11-19T11:21:51.579Z,11.36
2022-11-19T11:22:54.294Z,11.33
2022-11-19T11:23:56.937Z,11.31
2022-11-19T11:25:07.694Z,11.28
2022-11-19T11:26:09.956Z,11.19
2022-11-19T11:27:12.574Z,11.18
2022-11-19T11:28:15.228Z,11.17
2022-11-19T11:29:18.909Z,11.17
2022-11-19T11:30:22.662Z,11.17
2022-11-19T11:31:25.310Z,11.18
2022-11-19T11:32:27.979Z,11.15
2022-11-19T11:33:30.616Z,11.16
2022-11-19T11:34:33.319Z,11.17
2022-11-19T11:35:36.201Z,11.19
2022-11-19T11:36:38.854Z,11.2
2022-11-19T11:37:41.546Z,11.23
2022-11-19T11:38:44.206Z,11.25
2022-11-19T11:39:46.859Z,11.27
2022-11-19T11:40:49.512Z,11.25
2022-11-19T11:42:06.185Z,11.28
2022-11-19T11:43:09.602Z,11.28
2022-11-19T11:44:12.200Z,11.29
2022-11-19T11:45:14.922Z,11.31
2022-11-19T11:46:17.628Z,11.3
2022-11-19T11:47:20.303Z,11.31
2022-11-19T11:48:22.908Z,11.3
2022-11-19T11:49:26.381Z,11.32
2022-11-19T11:50:29.283Z,11.34
2022-11-19T11:51:31.953Z,11.35
2022-11-19T11:52:34.587Z,11.38
2022-11-19T11:53:37.251Z,11.41
2022-11-19T11:54:40.130Z,11.44
2022-11-19T11:55:42.787Z,11.47
2022-11-19T11:56:45.460Z,11.52
2022-11-19T11:57:48.342Z,11.56
2022-11-19T11:58:50.987Z,11.58
2022-11-19T11:59:53.681Z,11.59
2022-11-19T12:00:56.514Z,11.65
2022-11-19T12:01:59.286Z,11.67
2022-11-19T12:03:02.283Z,11.69
2022-11-19T12:04:04.907Z,11.7
2022-11-19T12:05:07.570Z,11.74
2022-11-19T12:06:10.178Z,11.76
2022-11-19T12:07:13.071Z,11.78
2022-11-19T12:08:15.837Z,11.78
2022-11-19T12:09:19.460Z,11.75
2022-11-19T12:10:22.399Z,11.77
2022-11-19T12:11:25.044Z,11.77
2022-11-19T12:12:27.672Z,11.77
2022-11-19T12:13:30.827Z,11.75
2022-11-19T12:14:33.453Z,11.72
2022-11-19T12:15:36.069Z,11.7
2022-11-19T12:16:38.863Z,11.65
2022-11-19T12:17:41.689Z,11.66
2022-11-19T12:18:44.943Z,11.68
2022-11-19T12:19:47.629Z,11.63
2022-11-19T12:20:50.250Z,11.64
2022-11-19T12:21:52.904Z,11.65
2022-11-19T12:22:55.551Z,11.65
2022-11-19T12:23:58.206Z,11.7
2022-11-19T12:25:00.816Z,11.74
2022-11-19T12:26:03.580Z,11.77
2022-11-19T12:27:06.212Z,11.78
2022-11-19T12:28:08.887Z,11.78
2022-11-19T12:29:11.526Z,11.74
2022-11-19T12:30:14.201Z,11.79
2022-11-19T12:31:17.152Z,11.82
2022-11-19T12:32:19.840Z,11.81
2022-11-19T12:33:22.566Z,11.82
2022-11-19T12:34:25.264Z,11.81
2022-11-19T12:35:27.917Z,11.76
2022-11-19T12:36:30.566Z,11.73
2022-11-19T12:37:33.300Z,11.68
2022-11-19T12:38:35.983Z,11.61
2022-11-19T12:39:38.620Z,11.56
2022-11-19T12:40:42.787Z,11.52
2022-11-19T12:41:45.363Z,11.5
2022-11-19T12:42:47.969Z,11.45
2022-11-19T12:43:50.630Z,11.43
2022-11-19T12:44:53.264Z,11.39
2022-11-19T12:45:55.999Z,11.36
2022-11-19T12:46:58.631Z,11.34
2022-11-19T12:48:01.318Z,11.31
2022-11-19T12:49:03.968Z,11.29
2022-11-19T12:50:06.616Z,11.27
2022-11-19T12:51:12.803Z,11.25
2022-11-19T12:52:15.279Z,11.2
2022-11-19T12:53:17.961Z,11.19
2022-11-19T12:54:35.076Z,11.17
2022-11-19T12:55:37.899Z,11.17
2022-11-19T12:56:40.471Z,11.16
2022-11-19T12:57:43.123Z,11.16
2022-11-19T12:58:45.736Z,11.15
2022-11-19T12:59:48.400Z,11.15
2022-11-19T13:00:51.972Z,11.18
2022-11-19T13:01:54.921Z,11.19
2022-11-19T13:02:57.598Z,11.2
2022-11-19T13:04:00.347Z,11.21
2022-11-19T13:05:03.080Z,11.23
2022-11-19T13:06:05.763Z,11.24
2022-11-19T13:07:08.561Z,11.26
2022-11-19T13:08:11.258Z,11.29
2022-11-19T13:09:13.937Z,11.29
2022-11-19T13:10:16.595Z,11.33
2022-11-19T13:11:19.257Z,11.4
2022-11-19T13:12:25.482Z,11.46
2022-11-19T13:13:28.411Z,11.53
2022-11-19T13:14:31.049Z,11.59
2022-11-19T13:15:33.903Z,11.64
2022-11-19T13:16:36.599Z,11.69
2022-11-19T13:17:49.295Z,11.73
2022-11-19T13:18:54.986Z,11.74
2022-11-19T13:19:57.422Z,11.77
2022-11-19T13:21:00.339Z,11.81
2022-11-19T13:22:04.558Z,11.83
2022-11-19T13:23:07.284Z,11.85
2022-11-19T13:24:09.920Z,11.89
2022-11-19T13:25:12.594Z,11.94
2022-11-19T13:26:15.259Z,11.98
2022-11-19T13:27:23.759Z,11.97
2022-11-19T13:28:26.057Z,11.96
2022-11-19T13:29:28.717Z,11.97
2022-11-19T13:30:31.366Z,12
2022-11-19T13:31:34.009Z,12.01
2022-11-19T13:32:36.696Z,12.04
2022-11-19T13:33:39.926Z,12.05
2022-11-19T13:34:42.541Z,12.05
2022-11-19T13:35:45.231Z,12.03
2022-11-19T13:36:47.948Z,12.01
2022-11-19T13:37:59.046Z,11.99
2022-11-19T13:39:01.329Z,11.94
2022-11-19T13:40:03.936Z,11.93
2022-11-19T13:41:06.595Z,11.87
2022-11-19T13:42:09.271Z,11.85
2022-11-19T13:43:37.226Z,11.84
2022-11-19T13:44:33.802Z,11.84
2022-11-19T13:45:36.376Z,11.83
2022-11-19T13:46:39.039Z,11.81